createdAt,value
2022-09-27T00:02:08.491Z,82.43
2022-09-27T00:04:37.151Z,82.42
2022-09-27T00:07:06.169Z,83.31
2022-09-27T00:09:34.892Z,84.35
2022-09-27T00:12:03.918Z,84.07
2022-09-27T00:14:32.445Z,84.29
2022-09-27T00:17:00.860Z,85.16
2022-09-27T00:19:29.788Z,84.28
2022-09-27T00:21:58.310Z,83.55
2022-09-27T00:24:26.730Z,83.38
2022-09-27T00:26:55.246Z,83.18
2022-09-27T00:29:24.293Z,84.17
2022-09-27T00:31:52.797Z,85.75
2022-09-27T00:34:26.028Z,85.95
2022-09-27T00:36:55.674Z,86.00
2022-09-27T00:39:25.190Z,86.61
2022-09-27T00:41:53.712Z,87.33
2022-09-27T00:44:33.745Z,85.24
2022-09-27T00:47:10.892Z,85.23
2022-09-27T00:49:53.603Z,85.14
2022-09-27T00:52:31.682Z,85.70
2022-09-27T00:55:20.768Z,86.91
2022-09-27T00:57:50.409Z,84.35
2022-09-27T01:00:22.228Z,86.69
2022-09-27T01:02:55.096Z,87.85
2022-09-27T01:05:27.756Z,86.12
2022-09-27T01:08:00.979Z,87.05
2022-09-27T01:10:41.072Z,87.78
2022-09-27T01:13:37.400Z,84.84
2022-09-27T01:17:00.577Z,86.30
2022-09-27T01:19:51.584Z,85.98
2022-09-27T01:22:55.267Z,86.90
2022-09-27T01:25:50.215Z,87.23
2022-09-27T01:29:19.541Z,88.30
2022-09-27T01:32:14.953Z,87.80
2022-09-27T01:34:57.496Z,88.80
2022-09-27T01:37:59.206Z,89.03
2022-09-27T01:40:40.491Z,89.09
2022-09-27T01:44:16.091Z,88.03
2022-09-27T01:46:56.602Z,88.00
2022-09-27T01:49:58.451Z,88.79
2022-09-27T01:52:50.670Z,88.39
2022-09-27T01:55:24.637Z,88.42
2022-09-27T01:58:41.596Z,89.44
2022-09-27T02:01:13.399Z,88.27
2022-09-27T02:03:49.362Z,88.81
2022-09-27T02:07:24.711Z,89.55
2022-09-27T02:10:18.052Z,90.05
2022-09-27T02:13:06.213Z,89.96
2022-09-27T02:15:55.832Z,89.07
2022-09-27T02:18:56.270Z,90.22
2022-09-27T02:21:36.424Z,88.11
2022-09-27T02:24:10.165Z,88.13
2022-09-27T02:26:45.719Z,88.27
2022-09-27T02:29:30.993Z,88.72
2022-09-27T02:31:59.706Z,89.08
2022-09-27T02:34:33.149Z,87.99
2022-09-27T02:37:01.902Z,87.88
2022-09-27T02:39:30.999Z,89.29
2022-09-27T02:42:06.409Z,88.62
2022-09-27T02:44:35.557Z,90.70
2022-09-27T02:47:40.408Z,92.17
2022-09-27T02:51:05.538Z,92.18
2022-09-27T02:54:05.267Z,92.07
2022-09-27T02:57:24.278Z,91.69
2022-09-27T03:00:15.852Z,91.58
2022-09-27T03:03:14.321Z,91.24
2022-09-27T03:06:04.253Z,91.09
2022-09-27T03:08:33.049Z,91.83
2022-09-27T03:11:01.640Z,91.60
2022-09-27T03:13:30.802Z,90.35
2022-09-27T03:16:01.685Z,90.45
2022-09-27T03:18:48.919Z,90.35
2022-09-27T03:22:04.064Z,90.58
2022-09-27T03:24:32.930Z,90.45
2022-09-27T03:27:01.701Z,91.19
2022-09-27T03:29:30.130Z,91.73
2022-09-27T03:32:04.744Z,91.76
2022-09-27T03:35:15.338Z,89.18
2022-09-27T03:37:43.722Z,91.90
2022-09-27T03:40:12.183Z,92.82
2022-09-27T03:42:43.277Z,93.06
2022-09-27T03:45:15.055Z,93.37
2022-09-27T03:47:43.625Z,93.17
2022-09-27T03:50:12.876Z,93.14
2022-09-27T03:52:43.944Z,93.48
2022-09-27T03:55:13.854Z,93.56
2022-09-27T03:57:47.018Z,91.72
2022-09-27T04:00:20.331Z,92.20
2022-09-27T04:02:48.942Z,92.78
2022-09-27T04:05:28.939Z,92.42
2022-09-27T04:08:11.202Z,92.34
2022-09-27T04:10:39.883Z,92.93
2022-09-27T04:13:08.579Z,92.81
2022-09-27T04:15:44.981Z,93.48
2022-09-27T04:18:33.903Z,92.54
2022-09-27T04:21:14.711Z,92.55
2022-09-27T04:23:49.015Z,93.58
2022-09-27T04:26:18.761Z,93.56
2022-09-27T04:28:54.851Z,92.81
2022-09-27T04:31:23.776Z,93.15
2022-09-27T04:33:56.929Z,92.98
2022-09-27T04:36:29.020Z,93.25
2022-09-27T04:39:07.904Z,93.47
2022-09-27T04:41:38.996Z,93.00
2022-09-27T04:44:07.473Z,93.20
2022-09-27T04:46:36.120Z,92.58
2022-09-27T04:49:04.565Z,91.98
2022-09-27T04:51:34.475Z,91.80
2022-09-27T04:54:02.905Z,91.81
2022-09-27T04:56:33.622Z,92.13
2022-09-27T04:59:02.608Z,92.20
2022-09-27T05:01:32.143Z,92.42
2022-09-27T05:04:00.496Z,92.40
2022-09-27T05:06:29.636Z,92.28
2022-09-27T05:09:00.416Z,92.25
2022-09-27T05:11:31.590Z,91.95
2022-09-27T05:14:29.023Z,90.78
2022-09-27T05:17:38.400Z,90.95
2022-09-27T05:21:05.902Z,90.27
2022-09-27T05:23:41.953Z,90.58
2022-09-27T05:26:12.189Z,90.56
2022-09-27T05:28:44.245Z,91.22
2022-09-27T05:31:13.553Z,91.29
2022-09-27T05:33:42.894Z,91.45
2022-09-27T05:36:26.146Z,90.72
2022-09-27T05:38:54.568Z,90.58
2022-09-27T05:41:24.270Z,90.76
2022-09-27T05:43:52.795Z,90.13
2022-09-27T05:46:21.388Z,90.47
2022-09-27T05:48:49.820Z,90.52
2022-09-27T05:51:19.489Z,90.63
2022-09-27T05:53:48.150Z,90.44
2022-09-27T05:56:22.904Z,90.72
2022-09-27T05:59:41.476Z,90.54
2022-09-27T06:02:21.931Z,90.21
2022-09-27T06:05:09.615Z,90.13
2022-09-27T06:07:48.578Z,90.14
2022-09-27T06:10:25.679Z,89.53
2022-09-27T06:12:54.227Z,89.36
2022-09-27T06:15:46.808Z,89.01
2022-09-27T06:18:18.287Z,88.21
2022-09-27T06:20:49.335Z,87.80
2022-09-27T06:23:23.778Z,87.95
2022-09-27T06:25:54.495Z,88.06
2022-09-27T06:28:27.553Z,88.13
2022-09-27T06:31:00.647Z,87.74
2022-09-27T06:34:10.358Z,88.06
2022-09-27T06:36:38.818Z,87.37
2022-09-27T06:39:07.402Z,86.50
2022-09-27T06:41:45.152Z,85.42
2022-09-27T06:44:51.608Z,85.62
2022-09-27T06:47:39.201Z,84.96
2022-09-27T06:51:07.134Z,84.65
2022-09-27T06:53:35.861Z,84.63
2022-09-27T06:56:04.374Z,83.94
2022-09-27T06:59:02.194Z,83.66
2022-09-27T07:01:45.864Z,83.27
2022-09-27T07:04:55.140Z,82.55
2022-09-27T07:07:43.129Z,81.29
2022-09-27T07:10:12.649Z,80.97
2022-09-27T07:12:41.879Z,80.58
2022-09-27T07:15:11.404Z,80.78
2022-09-27T07:17:40.432Z,81.27
2022-09-27T07:20:10.454Z,81.24
2022-09-27T07:22:44.284Z,81.79
2022-09-27T07:25:13.620Z,82.31
2022-09-27T07:27:42.207Z,81.32
2022-09-27T07:30:13.999Z,80.16
2022-09-27T07:32:43.803Z,80.10
2022-09-27T07:35:15.637Z,79.78
2022-09-27T07:37:45.562Z,79.59
2022-09-27T07:40:15.411Z,79.36
2022-09-27T07:42:44.218Z,79.40
2022-09-27T07:45:13.326Z,78.86
2022-09-27T07:48:41.359Z,78.67
2022-09-27T07:51:35.170Z,77.95
2022-09-27T07:54:18.485Z,78.20
2022-09-27T07:57:06.324Z,77.35
2022-09-27T07:59:45.509Z,77.35
2022-09-27T08:02:17.739Z,76.37
2022-09-27T08:04:49.663Z,74.73
2022-09-27T08:07:18.987Z,73.79
2022-09-27T08:09:51.228Z,74.02
2022-09-27T08:12:23.919Z,73.53
2022-09-27T08:14:52.781Z,72.97
2022-09-27T08:17:21.300Z,73.45
2022-09-27T08:20:09.191Z,74.33
2022-09-27T08:22:49.660Z,73.88
2022-09-27T08:25:44.316Z,72.78
2022-09-27T08:28:29.957Z,71.03
2022-09-27T08:31:18.559Z,70.88
2022-09-27T08:33:53.317Z,69.23
2022-09-27T08:36:24.423Z,69.77
2022-09-27T08:38:54.451Z,69.20
2022-09-27T08:41:40.430Z,69.82
2022-09-27T08:44:26.247Z,69.77
2022-09-27T08:47:12.510Z,68.74
2022-09-27T08:49:55.856Z,70.57
2022-09-27T08:52:48.977Z,70.43
2022-09-27T08:55:40.986Z,69.84
2022-09-27T08:58:22.408Z,68.70
2022-09-27T09:00:55.571Z,68.78
2022-09-27T09:03:31.051Z,67.62
2022-09-27T09:06:11.796Z,67.12
2022-09-27T09:09:02.063Z,66.27
2022-09-27T09:12:25.587Z,65.76
2022-09-27T09:15:16.753Z,66.28
2022-09-27T09:18:10.026Z,65.10
2022-09-27T09:22:15.481Z,64.81
2022-09-27T09:25:23.123Z,64.31
2022-09-27T09:28:10.431Z,62.66
2022-09-27T09:31:05.368Z,64.06
2022-09-27T09:33:57.158Z,63.61
2022-09-27T09:36:38.642Z,62.01
2022-09-27T09:39:31.096Z,61.66
2022-09-27T09:42:08.417Z,60.51
2022-09-27T09:45:18.321Z,60.97
2022-09-27T09:48:05.486Z,61.09
2022-09-27T09:50:54.714Z,60.88
2022-09-27T09:53:58.352Z,61.12
2022-09-27T09:56:47.777Z,61.51
2022-09-27T09:59:27.133Z,61.75
2022-09-27T10:02:08.820Z,60.84
2022-09-27T10:04:37.501Z,61.01
2022-09-27T10:07:06.840Z,61.24
2022-09-27T10:09:36.860Z,62.00
2022-09-27T10:12:23.769Z,62.57
2022-09-27T10:14:54.434Z,61.45
2022-09-27T10:17:30.192Z,61.48
2022-09-27T10:19:59.966Z,61.12
2022-09-27T10:22:54.592Z,61.17
2022-09-27T10:26:00.457Z,60.45
2022-09-27T10:29:37.313Z,60.62
2022-09-27T10:32:25.637Z,58.59
2022-09-27T10:35:33.335Z,58.12
2022-09-27T10:38:28.605Z,57.32
2022-09-27T10:41:17.072Z,56.58
2022-09-27T10:43:45.652Z,56.69
2022-09-27T10:46:34.918Z,56.03
2022-09-27T10:49:32.223Z,56.33
2022-09-27T10:52:21.949Z,56.62
2022-09-27T10:54:57.802Z,56.28
2022-09-27T10:57:30.387Z,56.65
2022-09-27T11:00:31.514Z,57.26
2022-09-27T11:03:07.443Z,57.60
2022-09-27T11:05:39.757Z,58.81
2022-09-27T11:08:28.682Z,57.91
2022-09-27T11:11:23.859Z,55.67
2022-09-27T11:14:04.757Z,53.88
2022-09-27T11:17:04.949Z,54.40
2022-09-27T11:19:45.523Z,53.04
2022-09-27T11:23:03.164Z,52.32
2022-09-27T11:25:51.230Z,51.61
2022-09-27T11:29:03.753Z,53.02
2022-09-27T11:32:53.370Z,50.87
2022-09-27T11:35:52.623Z,50.00
2022-09-27T11:38:54.849Z,49.00
2022-09-27T11:41:37.055Z,50.49
2022-09-27T11:44:41.309Z,50.86
2022-09-27T11:47:41.940Z,50.91
2022-09-27T11:50:56.825Z,51.58
2022-09-27T11:53:53.505Z,52.68
2022-09-27T11:56:49.171Z,52.61
2022-09-27T11:59:37.619Z,52.14
2022-09-27T12:02:21.014Z,51.46
2022-09-27T12:05:29.310Z,52.06
2022-09-27T12:08:35.550Z,51.79
2022-09-27T12:11:28.322Z,51.09
2022-09-27T12:14:07.609Z,52.44
2022-09-27T12:16:39.241Z,51.17
2022-09-27T12:19:19.906Z,50.08
2022-09-27T12:21:57.565Z,50.62
2022-09-27T12:24:27.054Z,49.82
2022-09-27T12:28:00.553Z,50.74
2022-09-27T12:30:34.438Z,50.18
2022-09-27T12:33:16.904Z,49.55
2022-09-27T12:35:53.657Z,46.96
2022-09-27T12:38:36.100Z,45.01
2022-09-27T12:41:11.359Z,46.75
2022-09-27T12:43:50.994Z,45.89
2022-09-27T12:46:43.926Z,44.93
2022-09-27T12:49:15.375Z,43.95
2022-09-27T12:52:02.781Z,45.24
2022-09-27T12:55:22.809Z,44.64
2022-09-27T12:58:43.889Z,41.21
2022-09-27T13:01:57.780Z,40.61
2022-09-27T13:04:46.898Z,40.53
2022-09-27T13:07:34.486Z,40.57
2022-09-27T13:10:45.349Z,39.40
2022-09-27T13:13:37.872Z,40.11
2022-09-27T13:16:08.646Z,41.63
2022-09-27T13:19:03.095Z,42.14
2022-09-27T13:21:47.599Z,41.76
2022-09-27T13:24:51.873Z,41.38
2022-09-27T13:28:33.705Z,41.92
2022-09-27T13:31:15.968Z,39.99
2022-09-27T13:33:55.135Z,39.96
2022-09-27T13:36:30.613Z,40.56
2022-09-27T13:39:11.940Z,41.56
2022-09-27T13:42:39.496Z,43.79
2022-09-27T13:45:29.431Z,45.25
2022-09-27T13:47:59.710Z,44.46
2022-09-27T13:50:37.238Z,44.07
2022-09-27T13:53:33.881Z,44.02
2022-09-27T13:56:04.807Z,42.32
2022-09-27T13:59:01.765Z,44.48
2022-09-27T14:02:21.353Z,45.82
2022-09-27T14:04:52.861Z,46.24
2022-09-27T14:07:41.546Z,48.81
2022-09-27T14:10:23.107Z,48.98
2022-09-27T14:12:53.625Z,50.19
2022-09-27T14:15:29.796Z,51.04
2022-09-27T14:17:59.632Z,51.68
2022-09-27T14:20:38.882Z,51.64
2022-09-27T14:23:25.784Z,50.41
2022-09-27T14:25:56.729Z,50.16
2022-09-27T14:28:26.764Z,51.70
2022-09-27T14:31:39.041Z,50.94
2022-09-27T14:34:11.224Z,52.24
2022-09-27T14:37:03.698Z,51.87
2022-09-27T14:39:37.978Z,50.31
2022-09-27T14:42:33.189Z,49.71
2022-09-27T14:45:06.515Z,49.30
2022-09-27T14:47:34.852Z,50.04
2022-09-27T14:50:24.562Z,50.30
2022-09-27T14:52:56.357Z,50.51
2022-09-27T14:55:30.356Z,51.88
2022-09-27T14:58:03.086Z,52.53
2022-09-27T15:00:37.292Z,52.05
2022-09-27T15:03:10.396Z,54.31
2022-09-27T15:05:43.181Z,53.37
2022-09-27T15:08:13.180Z,54.00
2022-09-27T15:10:42.421Z,55.24
2022-09-27T15:13:18.691Z,54.56
2022-09-27T15:15:48.989Z,56.57
2022-09-27T15:18:42.644Z,59.08
2022-09-27T15:21:27.906Z,60.57
2022-09-27T15:23:59.493Z,61.81
2022-09-27T15:26:46.114Z,61.57
2022-09-27T15:29:24.791Z,62.26
2022-09-27T15:32:08.400Z,61.49
2022-09-27T15:34:37.367Z,60.23
2022-09-27T15:37:06.722Z,59.04
2022-09-27T15:39:40.536Z,58.76
2022-09-27T15:42:17.425Z,58.96
2022-09-27T15:44:52.939Z,59.02
2022-09-27T15:47:37.781Z,59.04
2022-09-27T15:50:15.508Z,59.41
2022-09-27T15:52:55.726Z,60.09
2022-09-27T15:55:29.578Z,63.05
2022-09-27T15:58:05.869Z,63.73
2022-09-27T16:00:38.368Z,62.70
2022-09-27T16:03:06.737Z,62.05
2022-09-27T16:05:35.054Z,62.63
2022-09-27T16:08:03.487Z,63.27
2022-09-27T16:10:53.443Z,64.32
2022-09-27T16:13:25.284Z,65.07
2022-09-27T16:15:55.329Z,66.00
2022-09-27T16:18:28.214Z,66.31
2022-09-27T16:21:04.291Z,67.04
2022-09-27T16:23:34.047Z,67.52
2022-09-27T16:26:02.509Z,68.16
2022-09-27T16:28:31.633Z,68.81
2022-09-27T16:31:06.273Z,70.30
2022-09-27T16:33:36.014Z,70.63
2022-09-27T16:36:16.287Z,72.22
2022-09-27T16:38:47.941Z,73.72
2022-09-27T16:41:16.642Z,73.09
2022-09-27T16:43:47.990Z,73.89
2022-09-27T16:46:19.252Z,72.42
2022-09-27T16:48:49.261Z,72.56
2022-09-27T16:51:39.424Z,72.52
2022-09-27T16:54:08.841Z,71.88
2022-09-27T16:56:37.577Z,72.22
2022-09-27T16:59:07.175Z,71.68
2022-09-27T17:01:35.771Z,72.21
2022-09-27T17:04:04.320Z,75.36
2022-09-27T17:06:34.749Z,74.22
2022-09-27T17:09:04.519Z,76.57
2022-09-27T17:11:33.775Z,75.02
2022-09-27T17:14:02.125Z,74.51
2022-09-27T17:16:31.321Z,76.09
2022-09-27T17:18:59.770Z,77.00
2022-09-27T17:21:28.489Z,75.27
2022-09-27T17:23:57.021Z,76.27
2022-09-27T17:26:27.040Z,76.61
2022-09-27T17:28:57.441Z,77.29
2022-09-27T17:31:26.568Z,77.66
2022-09-27T17:33:57.786Z,77.50
2022-09-27T17:36:30.108Z,76.85
2022-09-27T17:39:01.525Z,76.69
2022-09-27T17:41:30.414Z,76.85
2022-09-27T17:44:01.509Z,76.63
2022-09-27T17:46:35.733Z,76.42
2022-09-27T17:49:23.573Z,76.61
2022-09-27T17:51:53.887Z,76.80
2022-09-27T17:54:25.239Z,76.68
2022-09-27T17:56:54.155Z,76.79
2022-09-27T17:59:23.185Z,76.85
2022-09-27T18:01:52.013Z,75.21
2022-09-27T18:04:20.727Z,75.08
2022-09-27T18:06:49.204Z,74.80
2022-09-27T18:09:18.840Z,76.32
2022-09-27T18:11:47.396Z,78.77
2022-09-27T18:14:15.999Z,78.69
2022-09-27T18:16:45.029Z,79.43
2022-09-27T18:19:17.134Z,79.44
2022-09-27T18:21:45.729Z,80.24
2022-09-27T18:24:15.032Z,80.50
2022-09-27T18:26:44.306Z,80.43
2022-09-27T18:29:16.953Z,79.93
2022-09-27T18:31:48.685Z,79.61
2022-09-27T18:34:18.696Z,79.32
2022-09-27T18:36:47.465Z,78.87
2022-09-27T18:39:21.326Z,78.16
2022-09-27T18:41:50.332Z,78.06
2022-09-27T18:44:19.784Z,78.07
2022-09-27T18:46:48.545Z,77.35
2022-09-27T18:49:17.636Z,77.55
2022-09-27T18:51:47.926Z,79.44
2022-09-27T18:54:20.913Z,78.36
2022-09-27T18:56:52.466Z,77.65
2022-09-27T18:59:21.724Z,77.56
2022-09-27T19:01:50.717Z,78.94
2022-09-27T19:04:24.243Z,80.24
2022-09-27T19:06:55.809Z,80.03
2022-09-27T19:09:26.866Z,80.34
2022-09-27T19:11:55.264Z,80.88
2022-09-27T19:14:23.704Z,80.45
2022-09-27T19:16:52.314Z,79.96
2022-09-27T19:19:21.036Z,80.64
2022-09-27T19:21:49.559Z,79.19
2022-09-27T19:24:19.205Z,78.72
2022-09-27T19:26:47.810Z,78.71
2022-09-27T19:29:16.419Z,78.83
2022-09-27T19:31:45.004Z,79.67
2022-09-27T19:34:13.577Z,80.61
2022-09-27T19:36:41.913Z,80.43
2022-09-27T19:39:10.720Z,81.86
2022-09-27T19:41:40.540Z,81.66
2022-09-27T19:44:09.603Z,81.97
2022-09-27T19:46:38.135Z,81.58
2022-09-27T19:49:06.905Z,81.45
2022-09-27T19:51:35.229Z,81.47
2022-09-27T19:54:04.450Z,81.29
2022-09-27T19:56:32.872Z,81.68
2022-09-27T19:59:06.284Z,81.97
2022-09-27T20:01:35.919Z,80.64
2022-09-27T20:04:04.465Z,79.58
2022-09-27T20:06:33.414Z,79.74
2022-09-27T20:09:04.917Z,81.73
2022-09-27T20:11:35.046Z,81.19
2022-09-27T20:14:03.571Z,80.66
2022-09-27T20:16:32.239Z,79.82
2022-09-27T20:19:02.010Z,79.82
2022-09-27T20:21:32.896Z,79.38
2022-09-27T20:24:03.141Z,80.03
2022-09-27T20:26:34.624Z,82.50
2022-09-27T20:29:05.036Z,83.70
2022-09-27T20:31:37.960Z,83.50
2022-09-27T20:34:08.080Z,83.65
2022-09-27T20:36:39.886Z,83.22
2022-09-27T20:39:14.930Z,83.61
2022-09-27T20:41:46.485Z,82.80
2022-09-27T20:44:21.463Z,81.95
2022-09-27T20:46:49.994Z,81.99
2022-09-27T20:49:19.335Z,81.28
2022-09-27T20:51:48.813Z,81.30
2022-09-27T20:54:18.336Z,81.51
2022-09-27T20:56:48.830Z,81.98
2022-09-27T20:59:23.225Z,82.47
2022-09-27T21:01:53.689Z,81.39
2022-09-27T21:04:23.572Z,82.91
2022-09-27T21:06:52.797Z,84.27
2022-09-27T21:09:21.235Z,84.24
2022-09-27T21:11:52.214Z,84.87
2022-09-27T21:14:20.873Z,85.83
2022-09-27T21:16:49.490Z,86.19
2022-09-27T21:19:17.907Z,86.42
2022-09-27T21:21:46.438Z,87.12
2022-09-27T21:24:15.164Z,86.99
2022-09-27T21:26:43.784Z,87.44
2022-09-27T21:29:13.910Z,87.50
2022-09-27T21:31:43.183Z,87.06
2022-09-27T21:34:11.851Z,86.36
2022-09-27T21:36:40.372Z,85.73
2022-09-27T21:39:10.269Z,86.39
2022-09-27T21:41:39.401Z,86.88
2022-09-27T21:44:10.155Z,87.12
2022-09-27T21:46:42.106Z,87.36
2022-09-27T22:01:25.073Z,86.64
2022-09-27T22:03:55.676Z,86.51
2022-09-27T22:06:28.131Z,85.82
2022-09-27T22:08:58.151Z,85.92
2022-09-27T22:11:31.118Z,85.99
2022-09-27T22:14:00.647Z,86.98
2022-09-27T22:16:32.467Z,88.15
2022-09-27T22:19:01.309Z,88.11
2022-09-27T22:21:33.785Z,87.87
2022-09-27T22:24:12.239Z,88.09
2022-09-27T22:26:42.715Z,87.70
2022-09-27T22:29:11.192Z,87.57
2022-09-27T22:31:39.683Z,87.61
2022-09-27T22:34:17.210Z,87.71
2022-09-27T22:36:45.562Z,88.22
2022-09-27T22:39:14.303Z,88.51
2022-09-27T22:41:43.289Z,88.51
2022-09-27T22:44:11.845Z,88.66
2022-09-27T22:46:40.367Z,88.15
2022-09-27T22:49:09.034Z,88.39
2022-09-27T22:51:37.751Z,88.22
2022-09-27T22:54:06.403Z,88.76
2022-09-27T22:56:34.707Z,88.86
2022-09-27T22:59:03.408Z,89.65
2022-09-27T23:01:31.831Z,89.56
2022-09-27T23:04:00.371Z,89.35
2022-09-27T23:06:28.757Z,88.61
2022-09-27T23:08:58.346Z,89.46
2022-09-27T23:11:26.920Z,90.04
2022-09-27T23:13:57.449Z,89.57
2022-09-27T23:16:25.900Z,89.13
2022-09-27T23:18:56.858Z,88.95
2022-09-27T23:21:26.836Z,88.89
2022-09-27T23:23:57.797Z,88.93
2022-09-27T23:26:28.457Z,88.57
2022-09-27T23:29:02.623Z,88.91
2022-09-27T23:31:32.925Z,88.97
2022-09-27T23:34:04.805Z,88.96
2022-09-27T23:36:34.565Z,88.76
2022-09-27T23:39:03.038Z,88.49
2022-09-27T23:41:31.346Z,88.50
2022-09-27T23:43:59.745Z,88.53
2022-09-27T23:46:29.065Z,88.68
2022-09-27T23:48:59.000Z,88.50
2022-09-27T23:51:27.354Z,88.52
2022-09-27T23:53:57.990Z,88.28
2022-09-27T23:56:26.609Z,88.76
2022-09-27T23:58:54.930Z,88.59
